Decoded Metar for KMIB (MINOT in ND, USA) (IATA:MIB) | Meteo·Mobile Aviation Weather
aviador You're here:

KMIB Decoded Metar

MINOT in ND, USA
Report Time2018-10-22 12:56:00
UTC Time2018-10-22 14:01:13
Flight Rules vfr VFR
Wind300° at 10 kt
W.Decomp.*RWY 29: 10.0 kt HW 0 kt LCW
W.Rank300° ranks 1
Current wind is below 300° avg. (12.7)
Visibility9999 m
Phenomena:N/A
Clouds:N/A
Expected CloudBase > 2,000 ft AGL from Temp-Dew spread
CeilingNone
Temp00°C (ISA -12)
Dew Point-5°C (69% RH)
AAT-6.2°C
QNH1021 hPa
Density Alt36 ft
Elevation1,667 ft
Report Wrong Elevation
Raw Report
KMIB 221256Z AUTO 30010KT 10SM CLR 00/M05 A3014 RMK AO2 SLP230
T10021048 $=

Extra information for KMIB:More info

Metar Taf Metar & Taf Last 4 Metars F.Rules Stats Wind Profile Meteogram Temp Stats Airport Information Weather charts Add Link Nearby VenuesMetar ALERT Operation Metar Decoded Social comments

AIRNAV info for KMIB